sensor_id;sensor_type;location;lat;lon;timestamp;P1;durP1;ratioP1;P2;durP2;ratioP2
15502;SDS011;7853;52.186;5.948;2022-10-22T00:02:55;2.56;;;1.75;;
15502;SDS011;7853;52.186;5.948;2022-10-22T00:02:55;4.68;;;2.07;;
15502;SDS011;7853;52.186;5.948;2022-10-22T00:03:50;3.20;;;1.82;;
15502;SDS011;7853;52.186;5.948;2022-10-22T00:04:51;2.71;;;1.83;;
15502;SDS011;7853;52.186;5.948;2022-10-22T00:05:41;3.36;;;1.81;;
15502;SDS011;7853;52.186;5.948;2022-10-22T00:06:36;3.21;;;1.74;;
15502;SDS011;7853;52.186;5.948;2022-10-22T00:07:34;3.97;;;2.02;;
15502;SDS011;7853;52.186;5.948;2022-10-22T00:08:33;3.44;;;1.74;;
15502;SDS011;7853;52.186;5.948;2022-10-22T00:09:32;2.33;;;1.85;;
15502;SDS011;7853;52.186;5.948;2022-10-22T00:10:32;3.78;;;2.11;;
15502;SDS011;7853;52.186;5.948;2022-10-22T00:11:33;2.70;;;1.69;;
15502;SDS011;7853;52.186;5.948;2022-10-22T00:12:31;3.17;;;1.79;;
15502;SDS011;7853;52.186;5.948;2022-10-22T00:13:31;4.37;;;1.83;;
15502;SDS011;7853;52.186;5.948;2022-10-22T00:14:31;4.46;;;1.71;;
15502;SDS011;7853;52.186;5.948;2022-10-22T00:15:31;3.99;;;1.82;;
15502;SDS011;7853;52.186;5.948;2022-10-22T00:16:31;2.61;;;1.62;;
15502;SDS011;7853;52.186;5.948;2022-10-22T00:17:31;2.84;;;1.68;;
15502;SDS011;7853;52.186;5.948;2022-10-22T00:18:31;3.58;;;2.00;;
15502;SDS011;7853;52.186;5.948;2022-10-22T00:19:32;3.08;;;2.09;;
15502;SDS011;7853;52.186;5.948;2022-10-22T00:20:32;3.74;;;1.81;;
15502;SDS011;7853;52.186;5.948;2022-10-22T00:21:32;4.41;;;2.13;;
15502;SDS011;7853;52.186;5.948;2022-10-22T00:22:32;6.89;;;1.99;;
15502;SDS011;7853;52.186;5.948;2022-10-22T00:23:32;5.29;;;2.09;;
15502;SDS011;7853;52.186;5.948;2022-10-22T00:24:32;3.49;;;1.86;;
15502;SDS011;7853;52.186;5.948;2022-10-22T00:25:33;3.70;;;1.95;;
15502;SDS011;7853;52.186;5.948;2022-10-22T00:26:31;2.74;;;1.84;;
15502;SDS011;7853;52.186;5.948;2022-10-22T00:27:31;2.50;;;1.57;;
15502;SDS011;7853;52.186;5.948;2022-10-22T00:28:31;3.47;;;1.78;;
15502;SDS011;7853;52.186;5.948;2022-10-22T00:29:32;3.30;;;1.96;;
15502;SDS011;7853;52.186;5.948;2022-10-22T00:30:32;4.03;;;1.91;;
15502;SDS011;7853;52.186;5.948;2022-10-22T00:31:32;3.83;;;1.75;;
15502;SDS011;7853;52.186;5.948;2022-10-22T00:32:32;2.99;;;1.95;;
15502;SDS011;7853;52.186;5.948;2022-10-22T00:33:32;3.05;;;1.98;;
15502;SDS011;7853;52.186;5.948;2022-10-22T00:34:32;3.24;;;1.90;;
15502;SDS011;7853;52.186;5.948;2022-10-22T00:35:32;5.40;;;1.91;;
15502;SDS011;7853;52.186;5.948;2022-10-22T00:36:32;3.82;;;1.78;;
15502;SDS011;7853;52.186;5.948;2022-10-22T00:37:32;3.72;;;1.89;;
15502;SDS011;7853;52.186;5.948;2022-10-22T00:38:33;2.84;;;1.88;;
15502;SDS011;7853;52.186;5.948;2022-10-22T00:39:33;3.76;;;1.77;;
15502;SDS011;7853;52.186;5.948;2022-10-22T00:40:33;2.68;;;1.74;;
15502;SDS011;7853;52.186;5.948;2022-10-22T00:41:32;2.64;;;1.74;;
15502;SDS011;7853;52.186;5.948;2022-10-22T00:42:32;2.89;;;1.62;;
15502;SDS011;7853;52.186;5.948;2022-10-22T00:43:32;4.35;;;2.10;;
15502;SDS011;7853;52.186;5.948;2022-10-22T00:45:38;3.07;;;1.74;;
15502;SDS011;7853;52.186;5.948;2022-10-22T00:46:38;3.42;;;1.76;;
15502;SDS011;7853;52.186;5.948;2022-10-22T00:47:36;2.80;;;1.78;;
15502;SDS011;7853;52.186;5.948;2022-10-22T00:48:32;3.52;;;1.94;;
15502;SDS011;7853;52.186;5.948;2022-10-22T00:49:33;2.46;;;1.62;;
15502;SDS011;7853;52.186;5.948;2022-10-22T00:50:32;2.97;;;1.87;;
15502;SDS011;7853;52.186;5.948;2022-10-22T00:51:31;3.03;;;1.80;;
15502;SDS011;7853;52.186;5.948;2022-10-22T00:52:31;3.05;;;1.99;;
15502;SDS011;7853;52.186;5.948;2022-10-22T00:53:33;3.15;;;1.80;;
15502;SDS011;7853;52.186;5.948;2022-10-22T00:54:30;3.63;;;2.09;;
15502;SDS011;7853;52.186;5.948;2022-10-22T00:55:31;3.32;;;2.00;;
15502;SDS011;7853;52.186;5.948;2022-10-22T00:56:31;3.88;;;1.82;;
15502;SDS011;7853;52.186;5.948;2022-10-22T00:57:31;3.88;;;1.95;;
15502;SDS011;7853;52.186;5.948;2022-10-22T00:58:32;2.63;;;1.58;;
15502;SDS011;7853;52.186;5.948;2022-10-22T00:59:30;3.30;;;1.63;;
15502;SDS011;7853;52.186;5.948;2022-10-22T01:00:31;4.55;;;1.72;;
15502;SDS011;7853;52.186;5.948;2022-10-22T01:01:31;5.04;;;1.83;;
15502;SDS011;7853;52.186;5.948;2022-10-22T01:02:31;3.46;;;1.77;;
15502;SDS011;7853;52.186;5.948;2022-10-22T01:03:31;3.41;;;1.65;;
15502;SDS011;7853;52.186;5.948;2022-10-22T01:04:31;3.91;;;2.15;;
15502;SDS011;7853;52.186;5.948;2022-10-22T01:05:36;3.57;;;1.85;;
15502;SDS011;7853;52.186;5.948;2022-10-22T01:06:38;5.03;;;1.76;;
15502;SDS011;7853;52.186;5.948;2022-10-22T01:07:39;5.79;;;1.82;;
15502;SDS011;7853;52.186;5.948;2022-10-22T01:08:35;3.82;;;1.82;;
15502;SDS011;7853;52.186;5.948;2022-10-22T01:09:41;3.27;;;1.75;;
15502;SDS011;7853;52.186;5.948;2022-10-22T01:10:38;3.03;;;1.73;;
15502;SDS011;7853;52.186;5.948;2022-10-22T01:11:45;2.52;;;1.87;;
15502;SDS011;7853;52.186;5.948;2022-10-22T01:12:49;2.93;;;1.94;;
15502;SDS011;7853;52.186;5.948;2022-10-22T01:13:47;3.80;;;1.87;;
15502;SDS011;7853;52.186;5.948;2022-10-22T01:14:38;3.13;;;1.83;;
15502;SDS011;7853;52.186;5.948;2022-10-22T01:15:42;4.90;;;1.88;;
15502;SDS011;7853;52.186;5.948;2022-10-22T01:16:34;2.37;;;1.72;;
15502;SDS011;7853;52.186;5.948;2022-10-22T01:17:32;3.71;;;1.80;;
15502;SDS011;7853;52.186;5.948;2022-10-22T01:18:30;2.88;;;1.75;;
15502;SDS011;7853;52.186;5.948;2022-10-22T01:19:33;3.18;;;1.68;;
15502;SDS011;7853;52.186;5.948;2022-10-22T01:20:43;4.46;;;1.83;;
15502;SDS011;7853;52.186;5.948;2022-10-22T01:21:41;3.53;;;1.89;;
15502;SDS011;7853;52.186;5.948;2022-10-22T01:22:41;5.07;;;1.80;;
15502;SDS011;7853;52.186;5.948;2022-10-22T01:23:43;3.17;;;1.85;;
15502;SDS011;7853;52.186;5.948;2022-10-22T01:24:45;2.89;;;1.68;;
15502;SDS011;7853;52.186;5.948;2022-10-22T01:25:49;3.51;;;1.76;;
15502;SDS011;7853;52.186;5.948;2022-10-22T01:26:45;2.93;;;1.71;;
15502;SDS011;7853;52.186;5.948;2022-10-22T01:27:51;4.09;;;2.00;;
15502;SDS011;7853;52.186;5.948;2022-10-22T01:28:56;4.17;;;2.05;;
15502;SDS011;7853;52.186;5.948;2022-10-22T01:29:48;3.38;;;1.72;;
15502;SDS011;7853;52.186;5.948;2022-10-22T01:30:38;4.28;;;1.84;;
15502;SDS011;7853;52.186;5.948;2022-10-22T01:31:34;3.15;;;1.77;;
15502;SDS011;7853;52.186;5.948;2022-10-22T01:32:31;3.17;;;1.67;;
15502;SDS011;7853;52.186;5.948;2022-10-22T01:33:29;3.37;;;1.64;;
15502;SDS011;7853;52.186;5.948;2022-10-22T01:34:30;3.25;;;1.68;;
15502;SDS011;7853;52.186;5.948;2022-10-22T01:35:30;3.84;;;1.75;;
15502;SDS011;7853;52.186;5.948;2022-10-22T01:36:29;4.00;;;1.75;;
15502;SDS011;7853;52.186;5.948;2022-10-22T01:37:29;3.07;;;1.74;;
15502;SDS011;7853;52.186;5.948;2022-10-22T01:38:29;2.47;;;1.66;;
15502;SDS011;7853;52.186;5.948;2022-10-22T01:39:29;3.39;;;1.85;;
15502;SDS011;7853;52.186;5.948;2022-10-22T01:40:30;3.94;;;1.99;;
15502;SDS011;7853;52.186;5.948;2022-10-22T01:41:29;4.81;;;2.46;;
15502;SDS011;7853;52.186;5.948;2022-10-22T01:42:30;4.01;;;1.98;;
15502;SDS011;7853;52.186;5.948;2022-10-22T01:43:30;3.91;;;1.93;;
15502;SDS011;7853;52.186;5.948;2022-10-22T01:44:31;3.48;;;1.93;;
15502;SDS011;7853;52.186;5.948;2022-10-22T01:45:32;2.66;;;1.77;;
15502;SDS011;7853;52.186;5.948;2022-10-22T01:46:29;4.54;;;1.90;;
15502;SDS011;7853;52.186;5.948;2022-10-22T01:47:34;4.57;;;1.94;;
15502;SDS011;7853;52.186;5.948;2022-10-22T01:48:39;4.00;;;1.96;;
15502;SDS011;7853;52.186;5.948;2022-10-22T01:49:47;3.32;;;1.86;;
15502;SDS011;7853;52.186;5.948;2022-10-22T01:50:52;2.97;;;1.91;;
15502;SDS011;7853;52.186;5.948;2022-10-22T01:51:56;4.66;;;2.30;;
15502;SDS011;7853;52.186;5.948;2022-10-22T01:53:04;3.96;;;2.05;;
15502;SDS011;7853;52.186;5.948;2022-10-22T01:54:07;3.25;;;1.89;;
15502;SDS011;7853;52.186;5.948;2022-10-22T01:55:08;2.51;;;1.79;;
15502;SDS011;7853;52.186;5.948;2022-10-22T01:56:21;3.37;;;1.81;;
15502;SDS011;7853;52.186;5.948;2022-10-22T01:57:23;2.19;;;1.79;;
15502;SDS011;7853;52.186;5.948;2022-10-22T01:58:31;4.07;;;1.86;;
15502;SDS011;7853;52.186;5.948;2022-10-22T01:59:42;3.70;;;1.86;;
15502;SDS011;7853;52.186;5.948;2022-10-22T02:00:46;4.61;;;2.00;;
15502;SDS011;7853;52.186;5.948;2022-10-22T02:01:57;3.97;;;2.00;;
15502;SDS011;7853;52.186;5.948;2022-10-22T02:02:43;3.37;;;2.02;;
15502;SDS011;7853;52.186;5.948;2022-10-22T02:03:36;3.12;;;1.70;;
15502;SDS011;7853;52.186;5.948;2022-10-22T02:04:32;2.39;;;1.73;;
15502;SDS011;7853;52.186;5.948;2022-10-22T02:05:31;3.29;;;2.06;;
15502;SDS011;7853;52.186;5.948;2022-10-22T02:06:28;3.20;;;1.75;;
15502;SDS011;7853;52.186;5.948;2022-10-22T02:07:30;3.74;;;1.76;;
15502;SDS011;7853;52.186;5.948;2022-10-22T02:08:29;3.86;;;2.04;;
15502;SDS011;7853;52.186;5.948;2022-10-22T02:09:29;3.32;;;1.99;;
15502;SDS011;7853;52.186;5.948;2022-10-22T02:10:30;3.66;;;1.99;;
15502;SDS011;7853;52.186;5.948;2022-10-22T02:11:29;3.92;;;1.95;;
15502;SDS011;7853;52.186;5.948;2022-10-22T02:12:29;2.92;;;1.98;;
15502;SDS011;7853;52.186;5.948;2022-10-22T02:13:32;3.63;;;2.10;;
15502;SDS011;7853;52.186;5.948;2022-10-22T02:14:29;3.45;;;1.90;;
15502;SDS011;7853;52.186;5.948;2022-10-22T02:15:30;3.82;;;2.04;;
15502;SDS011;7853;52.186;5.948;2022-10-22T02:16:31;3.43;;;1.91;;
15502;SDS011;7853;52.186;5.948;2022-10-22T02:17:30;3.03;;;1.89;;
15502;SDS011;7853;52.186;5.948;2022-10-22T02:18:30;2.38;;;1.92;;
15502;SDS011;7853;52.186;5.948;2022-10-22T02:19:32;5.14;;;2.01;;
15502;SDS011;7853;52.186;5.948;2022-10-22T02:20:29;2.12;;;1.67;;
15502;SDS011;7853;52.186;5.948;2022-10-22T02:21:28;3.66;;;2.09;;
15502;SDS011;7853;52.186;5.948;2022-10-22T02:22:29;5.47;;;2.31;;
15502;SDS011;7853;52.186;5.948;2022-10-22T02:23:30;3.62;;;2.07;;
15502;SDS011;7853;52.186;5.948;2022-10-22T02:24:30;5.91;;;2.11;;
15502;SDS011;7853;52.186;5.948;2022-10-22T02:25:31;3.78;;;2.09;;
15502;SDS011;7853;52.186;5.948;2022-10-22T02:26:31;3.52;;;2.09;;
15502;SDS011;7853;52.186;5.948;2022-10-22T02:27:30;3.13;;;2.02;;
15502;SDS011;7853;52.186;5.948;2022-10-22T02:28:31;2.94;;;1.85;;
15502;SDS011;7853;52.186;5.948;2022-10-22T02:29:29;4.72;;;2.25;;
15502;SDS011;7853;52.186;5.948;2022-10-22T02:30:29;4.18;;;2.16;;
15502;SDS011;7853;52.186;5.948;2022-10-22T02:31:31;4.35;;;2.40;;
15502;SDS011;7853;52.186;5.948;2022-10-22T02:32:31;3.75;;;2.47;;
15502;SDS011;7853;52.186;5.948;2022-10-22T02:33:31;3.92;;;2.03;;
15502;SDS011;7853;52.186;5.948;2022-10-22T02:34:31;3.87;;;1.98;;
15502;SDS011;7853;52.186;5.948;2022-10-22T02:35:31;4.26;;;2.16;;
15502;SDS011;7853;52.186;5.948;2022-10-22T02:36:31;4.84;;;2.16;;
15502;SDS011;7853;52.186;5.948;2022-10-22T02:37:31;3.77;;;2.31;;
15502;SDS011;7853;52.186;5.948;2022-10-22T02:38:31;3.87;;;2.19;;
15502;SDS011;7853;52.186;5.948;2022-10-22T02:39:31;3.09;;;2.17;;
15502;SDS011;7853;52.186;5.948;2022-10-22T02:40:31;5.40;;;2.41;;
15502;SDS011;7853;52.186;5.948;2022-10-22T02:41:32;3.14;;;2.19;;
15502;SDS011;7853;52.186;5.948;2022-10-22T02:42:32;4.44;;;2.23;;
15502;SDS011;7853;52.186;5.948;2022-10-22T02:43:37;4.06;;;2.11;;
15502;SDS011;7853;52.186;5.948;2022-10-22T02:44:37;3.55;;;2.13;;
15502;SDS011;7853;52.186;5.948;2022-10-22T02:45:36;3.79;;;1.87;;
15502;SDS011;7853;52.186;5.948;2022-10-22T02:46:34;5.14;;;2.48;;
15502;SDS011;7853;52.186;5.948;2022-10-22T02:47:33;3.06;;;1.94;;
15502;SDS011;7853;52.186;5.948;2022-10-22T02:48:32;3.42;;;2.13;;
15502;SDS011;7853;52.186;5.948;2022-10-22T02:49:31;4.38;;;2.15;;
15502;SDS011;7853;52.186;5.948;2022-10-22T02:50:31;3.47;;;2.24;;
15502;SDS011;7853;52.186;5.948;2022-10-22T02:51:31;4.53;;;2.18;;
15502;SDS011;7853;52.186;5.948;2022-10-22T02:52:31;5.75;;;2.19;;
15502;SDS011;7853;52.186;5.948;2022-10-22T02:53:32;3.95;;;2.19;;
15502;SDS011;7853;52.186;5.948;2022-10-22T02:54:32;3.85;;;2.25;;
15502;SDS011;7853;52.186;5.948;2022-10-22T02:55:31;3.34;;;1.96;;
15502;SDS011;7853;52.186;5.948;2022-10-22T02:56:31;4.03;;;2.02;;
15502;SDS011;7853;52.186;5.948;2022-10-22T02:57:32;3.76;;;2.18;;
15502;SDS011;7853;52.186;5.948;2022-10-22T02:58:32;3.68;;;2.16;;
15502;SDS011;7853;52.186;5.948;2022-10-22T02:59:32;3.16;;;1.98;;
15502;SDS011;7853;52.186;5.948;2022-10-22T03:00:32;4.16;;;2.24;;
15502;SDS011;7853;52.186;5.948;2022-10-22T03:01:32;3.97;;;2.42;;
15502;SDS011;7853;52.186;5.948;2022-10-22T03:02:32;4.16;;;2.14;;
15502;SDS011;7853;52.186;5.948;2022-10-22T03:03:32;5.36;;;2.17;;
15502;SDS011;7853;52.186;5.948;2022-10-22T03:04:32;3.93;;;2.21;;
15502;SDS011;7853;52.186;5.948;2022-10-22T03:05:32;3.49;;;2.18;;
15502;SDS011;7853;52.186;5.948;2022-10-22T03:06:32;4.80;;;2.25;;
15502;SDS011;7853;52.186;5.948;2022-10-22T03:07:32;4.33;;;2.49;;
15502;SDS011;7853;52.186;5.948;2022-10-22T03:08:33;3.84;;;2.21;;
15502;SDS011;7853;52.186;5.948;2022-10-22T03:09:31;3.51;;;2.15;;
15502;SDS011;7853;52.186;5.948;2022-10-22T03:10:31;3.46;;;2.16;;
15502;SDS011;7853;52.186;5.948;2022-10-22T03:11:31;3.42;;;2.41;;
15502;SDS011;7853;52.186;5.948;2022-10-22T03:12:31;4.49;;;2.25;;
15502;SDS011;7853;52.186;5.948;2022-10-22T03:13:31;3.13;;;2.06;;
15502;SDS011;7853;52.186;5.948;2022-10-22T03:14:31;3.41;;;2.02;;
15502;SDS011;7853;52.186;5.948;2022-10-22T03:15:32;4.01;;;2.18;;
15502;SDS011;7853;52.186;5.948;2022-10-22T03:16:32;4.15;;;2.38;;
15502;SDS011;7853;52.186;5.948;2022-10-22T03:17:32;4.35;;;2.59;;
15502;SDS011;7853;52.186;5.948;2022-10-22T03:18:32;2.93;;;2.12;;
15502;SDS011;7853;52.186;5.948;2022-10-22T03:19:32;2.85;;;2.16;;
15502;SDS011;7853;52.186;5.948;2022-10-22T03:20:32;3.61;;;2.06;;
15502;SDS011;7853;52.186;5.948;2022-10-22T03:21:33;4.02;;;2.55;;
15502;SDS011;7853;52.186;5.948;2022-10-22T03:22:32;2.84;;;2.02;;
15502;SDS011;7853;52.186;5.948;2022-10-22T03:23:31;3.69;;;2.09;;
15502;SDS011;7853;52.186;5.948;2022-10-22T03:24:33;3.66;;;2.24;;
15502;SDS011;7853;52.186;5.948;2022-10-22T03:25:30;4.52;;;2.28;;
15502;SDS011;7853;52.186;5.948;2022-10-22T03:26:31;4.37;;;2.12;;
15502;SDS011;7853;52.186;5.948;2022-10-22T03:27:32;4.60;;;2.35;;
15502;SDS011;7853;52.186;5.948;2022-10-22T03:28:32;3.25;;;2.26;;
15502;SDS011;7853;52.186;5.948;2022-10-22T03:29:32;4.15;;;2.27;;
15502;SDS011;7853;52.186;5.948;2022-10-22T03:30:30;4.87;;;2.07;;
15502;SDS011;7853;52.186;5.948;2022-10-22T03:31:31;2.96;;;2.07;;
15502;SDS011;7853;52.186;5.948;2022-10-22T03:32:31;4.08;;;2.37;;
15502;SDS011;7853;52.186;5.948;2022-10-22T03:33:32;3.88;;;2.11;;
15502;SDS011;7853;52.186;5.948;2022-10-22T03:34:32;5.08;;;2.57;;
15502;SDS011;7853;52.186;5.948;2022-10-22T03:35:32;4.42;;;2.29;;
15502;SDS011;7853;52.186;5.948;2022-10-22T03:36:31;3.32;;;2.18;;
15502;SDS011;7853;52.186;5.948;2022-10-22T03:37:31;4.00;;;2.12;;
15502;SDS011;7853;52.186;5.948;2022-10-22T03:38:31;4.03;;;2.11;;
15502;SDS011;7853;52.186;5.948;2022-10-22T03:39:32;4.06;;;2.18;;
15502;SDS011;7853;52.186;5.948;2022-10-22T03:40:31;4.47;;;2.01;;
15502;SDS011;7853;52.186;5.948;2022-10-22T03:41:31;4.00;;;1.98;;
15502;SDS011;7853;52.186;5.948;2022-10-22T03:42:32;3.58;;;2.21;;
15502;SDS011;7853;52.186;5.948;2022-10-22T03:43:32;5.03;;;2.31;;
15502;SDS011;7853;52.186;5.948;2022-10-22T03:44:32;3.69;;;2.23;;
15502;SDS011;7853;52.186;5.948;2022-10-22T03:45:31;3.62;;;2.11;;
15502;SDS011;7853;52.186;5.948;2022-10-22T03:46:32;4.15;;;2.28;;
15502;SDS011;7853;52.186;5.948;2022-10-22T03:48:38;4.72;;;2.29;;
15502;SDS011;7853;52.186;5.948;2022-10-22T03:49:38;3.66;;;2.24;;
15502;SDS011;7853;52.186;5.948;2022-10-22T03:50:36;3.96;;;2.33;;
15502;SDS011;7853;52.186;5.948;2022-10-22T03:51:34;3.66;;;2.45;;
15502;SDS011;7853;52.186;5.948;2022-10-22T03:52:34;3.58;;;2.37;;
15502;SDS011;7853;52.186;5.948;2022-10-22T03:53:32;3.38;;;2.39;;
15502;SDS011;7853;52.186;5.948;2022-10-22T03:54:32;4.00;;;2.41;;
15502;SDS011;7853;52.186;5.948;2022-10-22T03:55:32;4.44;;;2.73;;
15502;SDS011;7853;52.186;5.948;2022-10-22T03:56:32;4.80;;;2.28;;
15502;SDS011;7853;52.186;5.948;2022-10-22T03:57:32;3.34;;;2.42;;
15502;SDS011;7853;52.186;5.948;2022-10-22T03:58:32;4.67;;;2.42;;
15502;SDS011;7853;52.186;5.948;2022-10-22T03:59:33;3.60;;;2.37;;
15502;SDS011;7853;52.186;5.948;2022-10-22T04:00:32;4.22;;;2.53;;
15502;SDS011;7853;52.186;5.948;2022-10-22T04:01:31;3.79;;;2.39;;
15502;SDS011;7853;52.186;5.948;2022-10-22T04:02:31;4.60;;;2.41;;
15502;SDS011;7853;52.186;5.948;2022-10-22T04:03:32;5.44;;;2.46;;
15502;SDS011;7853;52.186;5.948;2022-10-22T04:04:32;3.26;;;2.36;;
15502;SDS011;7853;52.186;5.948;2022-10-22T04:05:32;5.34;;;2.44;;
15502;SDS011;7853;52.186;5.948;2022-10-22T04:06:32;5.66;;;2.46;;
15502;SDS011;7853;52.186;5.948;2022-10-22T04:07:32;5.66;;;2.62;;
15502;SDS011;7853;52.186;5.948;2022-10-22T04:08:32;3.90;;;2.46;;
15502;SDS011;7853;52.186;5.948;2022-10-22T04:09:32;4.96;;;2.37;;
15502;SDS011;7853;52.186;5.948;2022-10-22T04:10:32;3.51;;;2.22;;
15502;SDS011;7853;52.186;5.948;2022-10-22T04:11:32;4.62;;;2.42;;
15502;SDS011;7853;52.186;5.948;2022-10-22T04:12:32;4.70;;;2.46;;
15502;SDS011;7853;52.186;5.948;2022-10-22T04:13:32;4.57;;;2.21;;
15502;SDS011;7853;52.186;5.948;2022-10-22T04:14:32;5.56;;;2.57;;
15502;SDS011;7853;52.186;5.948;2022-10-22T04:15:32;3.52;;;2.30;;
15502;SDS011;7853;52.186;5.948;2022-10-22T04:16:32;2.71;;;2.44;;
15502;SDS011;7853;52.186;5.948;2022-10-22T04:17:33;3.91;;;2.24;;
15502;SDS011;7853;52.186;5.948;2022-10-22T04:18:29;2.92;;;2.26;;
15502;SDS011;7853;52.186;5.948;2022-10-22T04:19:30;5.84;;;2.62;;
15502;SDS011;7853;52.186;5.948;2022-10-22T04:20:31;5.66;;;2.40;;
15502;SDS011;7853;52.186;5.948;2022-10-22T04:21:31;4.46;;;2.45;;
15502;SDS011;7853;52.186;5.948;2022-10-22T04:22:32;4.14;;;2.23;;
15502;SDS011;7853;52.186;5.948;2022-10-22T04:23:32;3.70;;;2.11;;
15502;SDS011;7853;52.186;5.948;2022-10-22T04:24:32;4.32;;;2.27;;
15502;SDS011;7853;52.186;5.948;2022-10-22T04:25:32;3.37;;;2.06;;
15502;SDS011;7853;52.186;5.948;2022-10-22T04:26:29;3.83;;;2.30;;
15502;SDS011;7853;52.186;5.948;2022-10-22T04:27:31;5.42;;;2.47;;
15502;SDS011;7853;52.186;5.948;2022-10-22T04:28:32;5.31;;;2.38;;
15502;SDS011;7853;52.186;5.948;2022-10-22T04:29:32;3.50;;;2.22;;
15502;SDS011;7853;52.186;5.948;2022-10-22T04:30:32;3.48;;;1.99;;
15502;SDS011;7853;52.186;5.948;2022-10-22T04:31:32;4.23;;;2.13;;
15502;SDS011;7853;52.186;5.948;2022-10-22T04:32:32;4.28;;;2.06;;
15502;SDS011;7853;52.186;5.948;2022-10-22T04:33:32;5.11;;;2.12;;
15502;SDS011;7853;52.186;5.948;2022-10-22T04:34:32;3.92;;;2.02;;
15502;SDS011;7853;52.186;5.948;2022-10-22T04:35:32;4.47;;;2.36;;
15502;SDS011;7853;52.186;5.948;2022-10-22T04:36:32;4.56;;;2.07;;
15502;SDS011;7853;52.186;5.948;2022-10-22T04:37:31;4.78;;;2.34;;
15502;SDS011;7853;52.186;5.948;2022-10-22T04:38:32;5.65;;;2.19;;
15502;SDS011;7853;52.186;5.948;2022-10-22T04:39:32;3.22;;;2.25;;
15502;SDS011;7853;52.186;5.948;2022-10-22T04:40:32;3.18;;;1.92;;
15502;SDS011;7853;52.186;5.948;2022-10-22T04:41:35;3.50;;;1.99;;
15502;SDS011;7853;52.186;5.948;2022-10-22T04:42:31;3.73;;;1.99;;
15502;SDS011;7853;52.186;5.948;2022-10-22T04:43:31;3.55;;;2.12;;
15502;SDS011;7853;52.186;5.948;2022-10-22T04:44:32;3.95;;;2.19;;
15502;SDS011;7853;52.186;5.948;2022-10-22T04:45:32;4.85;;;2.23;;
15502;SDS011;7853;52.186;5.948;2022-10-22T04:46:33;4.18;;;2.13;;
15502;SDS011;7853;52.186;5.948;2022-10-22T04:47:32;3.44;;;2.03;;
15502;SDS011;7853;52.186;5.948;2022-10-22T04:48:32;5.09;;;2.53;;
15502;SDS011;7853;52.186;5.948;2022-10-22T04:49:32;3.60;;;2.10;;
15502;SDS011;7853;52.186;5.948;2022-10-22T04:50:32;6.82;;;2.08;;
15502;SDS011;7853;52.186;5.948;2022-10-22T04:51:32;5.34;;;2.34;;
15502;SDS011;7853;52.186;5.948;2022-10-22T04:52:32;4.39;;;2.34;;
15502;SDS011;7853;52.186;5.948;2022-10-22T04:53:33;5.58;;;2.33;;
15502;SDS011;7853;52.186;5.948;2022-10-22T04:54:33;3.79;;;2.12;;
15502;SDS011;7853;52.186;5.948;2022-10-22T04:55:33;3.41;;;2.06;;
15502;SDS011;7853;52.186;5.948;2022-10-22T04:56:33;7.84;;;2.46;;
15502;SDS011;7853;52.186;5.948;2022-10-22T04:57:32;5.05;;;2.31;;
15502;SDS011;7853;52.186;5.948;2022-10-22T04:58:32;4.92;;;2.05;;
15502;SDS011;7853;52.186;5.948;2022-10-22T04:59:32;5.00;;;1.99;;
15502;SDS011;7853;52.186;5.948;2022-10-22T05:00:35;4.25;;;2.04;;
15502;SDS011;7853;52.186;5.948;2022-10-22T05:01:32;4.52;;;2.17;;
15502;SDS011;7853;52.186;5.948;2022-10-22T05:02:32;3.23;;;2.04;;
15502;SDS011;7853;52.186;5.948;2022-10-22T05:03:32;4.94;;;2.34;;
15502;SDS011;7853;52.186;5.948;2022-10-22T05:04:32;4.48;;;2.15;;
15502;SDS011;7853;52.186;5.948;2022-10-22T05:05:32;3.40;;;2.36;;
15502;SDS011;7853;52.186;5.948;2022-10-22T05:06:33;3.54;;;2.06;;
15502;SDS011;7853;52.186;5.948;2022-10-22T05:07:32;4.62;;;2.25;;
15502;SDS011;7853;52.186;5.948;2022-10-22T05:08:32;4.71;;;2.21;;
15502;SDS011;7853;52.186;5.948;2022-10-22T05:09:33;5.35;;;2.43;;
15502;SDS011;7853;52.186;5.948;2022-10-22T05:10:33;4.80;;;2.05;;
15502;SDS011;7853;52.186;5.948;2022-10-22T05:11:33;5.01;;;2.42;;
15502;SDS011;7853;52.186;5.948;2022-10-22T05:12:41;4.06;;;2.16;;
15502;SDS011;7853;52.186;5.948;2022-10-22T05:13:41;5.78;;;2.25;;
15502;SDS011;7853;52.186;5.948;2022-10-22T05:14:37;5.60;;;2.23;;
15502;SDS011;7853;52.186;5.948;2022-10-22T05:15:35;5.39;;;2.21;;
15502;SDS011;7853;52.186;5.948;2022-10-22T05:16:34;4.97;;;2.27;;
15502;SDS011;7853;52.186;5.948;2022-10-22T05:17:34;4.16;;;2.32;;
15502;SDS011;7853;52.186;5.948;2022-10-22T05:18:32;3.84;;;2.24;;
15502;SDS011;7853;52.186;5.948;2022-10-22T05:19:32;5.44;;;2.21;;
15502;SDS011;7853;52.186;5.948;2022-10-22T05:20:32;5.30;;;2.30;;
15502;SDS011;7853;52.186;5.948;2022-10-22T05:21:32;4.87;;;2.50;;
15502;SDS011;7853;52.186;5.948;2022-10-22T05:22:32;4.45;;;2.05;;
15502;SDS011;7853;52.186;5.948;2022-10-22T05:23:32;6.10;;;2.45;;
15502;SDS011;7853;52.186;5.948;2022-10-22T05:24:33;4.93;;;2.23;;
15502;SDS011;7853;52.186;5.948;2022-10-22T05:25:35;5.23;;;2.43;;
15502;SDS011;7853;52.186;5.948;2022-10-22T05:26:31;3.98;;;2.36;;
15502;SDS011;7853;52.186;5.948;2022-10-22T05:27:32;4.34;;;2.15;;
15502;SDS011;7853;52.186;5.948;2022-10-22T05:28:33;7.87;;;2.73;;
15502;SDS011;7853;52.186;5.948;2022-10-22T05:29:32;4.62;;;2.33;;
15502;SDS011;7853;52.186;5.948;2022-10-22T05:30:32;5.06;;;2.28;;
15502;SDS011;7853;52.186;5.948;2022-10-22T05:31:32;4.93;;;2.39;;
15502;SDS011;7853;52.186;5.948;2022-10-22T05:32:33;2.67;;;1.77;;
15502;SDS011;7853;52.186;5.948;2022-10-22T05:33:32;4.62;;;2.02;;
15502;SDS011;7853;52.186;5.948;2022-10-22T05:34:32;5.96;;;2.42;;
15502;SDS011;7853;52.186;5.948;2022-10-22T05:35:32;5.57;;;2.13;;
15502;SDS011;7853;52.186;5.948;2022-10-22T05:36:32;7.81;;;2.72;;
15502;SDS011;7853;52.186;5.948;2022-10-22T05:37:32;6.35;;;2.36;;
15502;SDS011;7853;52.186;5.948;2022-10-22T05:39:38;6.06;;;2.30;;
15502;SDS011;7853;52.186;5.948;2022-10-22T05:40:38;5.06;;;2.46;;
15502;SDS011;7853;52.186;5.948;2022-10-22T05:41:35;5.33;;;2.23;;
15502;SDS011;7853;52.186;5.948;2022-10-22T05:42:33;4.13;;;2.11;;
15502;SDS011;7853;52.186;5.948;2022-10-22T05:43:33;4.21;;;2.53;;
15502;SDS011;7853;52.186;5.948;2022-10-22T05:44:32;3.30;;;2.07;;
15502;SDS011;7853;52.186;5.948;2022-10-22T05:45:34;4.69;;;1.98;;
15502;SDS011;7853;52.186;5.948;2022-10-22T05:46:33;5.64;;;2.26;;
15502;SDS011;7853;52.186;5.948;2022-10-22T05:47:31;5.62;;;2.23;;
15502;SDS011;7853;52.186;5.948;2022-10-22T05:48:32;5.39;;;2.21;;
15502;SDS011;7853;52.186;5.948;2022-10-22T05:49:32;6.20;;;2.51;;
15502;SDS011;7853;52.186;5.948;2022-10-22T05:50:34;5.81;;;2.21;;
15502;SDS011;7853;52.186;5.948;2022-10-22T05:51:32;5.22;;;2.27;;
15502;SDS011;7853;52.186;5.948;2022-10-22T05:52:31;3.96;;;2.02;;
15502;SDS011;7853;52.186;5.948;2022-10-22T05:53:31;4.26;;;2.15;;
15502;SDS011;7853;52.186;5.948;2022-10-22T05:54:32;5.68;;;2.50;;
15502;SDS011;7853;52.186;5.948;2022-10-22T05:55:34;5.46;;;2.27;;
15502;SDS011;7853;52.186;5.948;2022-10-22T05:56:31;5.25;;;2.62;;
15502;SDS011;7853;52.186;5.948;2022-10-22T05:57:31;6.42;;;2.33;;
15502;SDS011;7853;52.186;5.948;2022-10-22T05:58:32;5.56;;;2.55;;
15502;SDS011;7853;52.186;5.948;2022-10-22T05:59:32;5.59;;;2.35;;
15502;SDS011;7853;52.186;5.948;2022-10-22T06:00:32;2.59;;;1.77;;
15502;SDS011;7853;52.186;5.948;2022-10-22T06:01:32;5.34;;;2.21;;
15502;SDS011;7853;52.186;5.948;2022-10-22T06:02:31;3.76;;;1.89;;
15502;SDS011;7853;52.186;5.948;2022-10-22T06:03:32;4.31;;;2.32;;
15502;SDS011;7853;52.186;5.948;2022-10-22T06:04:32;3.97;;;1.82;;
15502;SDS011;7853;52.186;5.948;2022-10-22T06:05:33;3.88;;;2.09;;
15502;SDS011;7853;52.186;5.948;2022-10-22T06:06:32;5.96;;;2.05;;
15502;SDS011;7853;52.186;5.948;2022-10-22T06:07:32;5.37;;;2.37;;
15502;SDS011;7853;52.186;5.948;2022-10-22T06:08:32;6.01;;;2.25;;
15502;SDS011;7853;52.186;5.948;2022-10-22T06:09:33;5.39;;;2.44;;
15502;SDS011;7853;52.186;5.948;2022-10-22T06:10:31;5.22;;;2.41;;
15502;SDS011;7853;52.186;5.948;2022-10-22T06:11:31;5.71;;;2.66;;